sensor_id;sensor_type;location;lat;lon;timestamp;pressure;altitude;pressure_sealevel;temperature;humidity
64862;BME280;62652;42.274;-71.436;2022-11-20T00:00:00;101120.0;;;0.9999999999999984;56.2
64862;BME280;62652;42.274;-71.436;2022-11-20T00:01:04;101110.0;;;0.9999999999999984;56.5
64862;BME280;62652;42.274;-71.436;2022-11-20T00:02:00;101120.0;;;0.9999999999999984;56.7
64862;BME280;62652;42.274;-71.436;2022-11-20T00:03:00;101120.0;;;0.9999999999999984;56.9
64862;BME280;62652;42.274;-71.436;2022-11-20T00:04:00;101120.0;;;0.8888888888888897;56.9
64862;BME280;62652;42.274;-71.436;2022-11-20T00:05:00;101120.0;;;0.8888888888888897;57.0
64862;BME280;62652;42.274;-71.436;2022-11-20T00:06:01;101120.0;;;0.8888888888888897;56.5
64862;BME280;62652;42.274;-71.436;2022-11-20T00:07:00;101120.0;;;0.8888888888888897;57.2
64862;BME280;62652;42.274;-71.436;2022-11-20T00:08:01;101120.0;;;0.8888888888888897;57.3
64862;BME280;62652;42.274;-71.436;2022-11-20T00:09:00;101120.0;;;0.777777777777777;57.5
64862;BME280;62652;42.274;-71.436;2022-11-20T00:10:00;101120.0;;;0.8888888888888897;57.1
64862;BME280;62652;42.274;-71.436;2022-11-20T00:11:03;101120.0;;;0.8888888888888897;56.7
64862;BME280;62652;42.274;-71.436;2022-11-20T00:12:00;101120.0;;;0.777777777777777;57.4
64862;BME280;62652;42.274;-71.436;2022-11-20T00:13:00;101120.0;;;0.777777777777777;57.3
64862;BME280;62652;42.274;-71.436;2022-11-20T00:14:01;101120.0;;;0.7222222222222207;57.5
64862;BME280;62652;42.274;-71.436;2022-11-20T00:15:00;101120.0;;;0.7222222222222207;57.7
64862;BME280;62652;42.274;-71.436;2022-11-20T00:16:02;101120.0;;;0.6111111111111119;58.2
64862;BME280;62652;42.274;-71.436;2022-11-20T00:17:00;101120.0;;;0.6111111111111119;57.9
64862;BME280;62652;42.274;-71.436;2022-11-20T00:18:00;101120.0;;;0.6111111111111119;58.0
64862;BME280;62652;42.274;-71.436;2022-11-20T00:19:01;101120.0;;;0.777777777777777;56.9
64862;BME280;62652;42.274;-71.436;2022-11-20T00:20:00;101120.0;;;0.7222222222222207;57.2
64862;BME280;62652;42.274;-71.436;2022-11-20T00:21:02;101120.0;;;0.6111111111111119;58.1
64862;BME280;62652;42.274;-71.436;2022-11-20T00:22:00;101120.0;;;0.6111111111111119;57.7
64862;BME280;62652;42.274;-71.436;2022-11-20T00:23:00;101120.0;;;0.6111111111111119;57.8
64862;BME280;62652;42.274;-71.436;2022-11-20T00:24:00;101130.0;;;0.7222222222222207;57.5
64862;BME280;62652;42.274;-71.436;2022-11-20T00:25:00;101130.0;;;0.7222222222222207;57.6
64862;BME280;62652;42.274;-71.436;2022-11-20T00:26:03;101140.0;;;0.6111111111111119;57.4
64862;BME280;62652;42.274;-71.436;2022-11-20T00:27:00;101140.0;;;0.6111111111111119;58.1
64862;BME280;62652;42.274;-71.436;2022-11-20T00:28:00;101140.0;;;0.6111111111111119;58.3
64862;BME280;62652;42.274;-71.436;2022-11-20T00:29:01;101140.0;;;0.6111111111111119;57.9
64862;BME280;62652;42.274;-71.436;2022-11-20T00:30:01;101140.0;;;0.6111111111111119;58.1
64862;BME280;62652;42.274;-71.436;2022-11-20T00:31:02;101140.0;;;0.6111111111111119;57.7
64862;BME280;62652;42.274;-71.436;2022-11-20T00:32:00;101140.0;;;0.6111111111111119;57.9
64862;BME280;62652;42.274;-71.436;2022-11-20T00:33:00;101140.0;;;0.6111111111111119;58.0
64862;BME280;62652;42.274;-71.436;2022-11-20T00:34:00;101140.0;;;0.6111111111111119;58.1
64862;BME280;62652;42.274;-71.436;2022-11-20T00:35:00;101140.0;;;0.6111111111111119;57.2
64862;BME280;62652;42.274;-71.436;2022-11-20T00:36:01;101140.0;;;0.7222222222222207;57.4
64862;BME280;62652;42.274;-71.436;2022-11-20T00:37:00;101140.0;;;0.7222222222222207;57.2
64862;BME280;62652;42.274;-71.436;2022-11-20T00:38:00;101140.0;;;0.6111111111111119;57.5
64862;BME280;62652;42.274;-71.436;2022-11-20T00:39:00;101140.0;;;0.6111111111111119;58.1
64862;BME280;62652;42.274;-71.436;2022-11-20T00:40:00;101140.0;;;0.6111111111111119;57.5
64862;BME280;62652;42.274;-71.436;2022-11-20T00:41:03;101140.0;;;0.4999999999999992;57.8
64862;BME280;62652;42.274;-71.436;2022-11-20T00:42:00;101140.0;;;0.38888888888889045;58.0
64862;BME280;62652;42.274;-71.436;2022-11-20T00:43:00;101140.0;;;0.38888888888889045;58.3
64862;BME280;62652;42.274;-71.436;2022-11-20T00:44:00;101140.0;;;0.38888888888889045;58.5
64862;BME280;62652;42.274;-71.436;2022-11-20T00:45:00;101140.0;;;0.38888888888889045;58.8
64862;BME280;62652;42.274;-71.436;2022-11-20T00:46:02;101130.0;;;0.38888888888889045;58.7
64862;BME280;62652;42.274;-71.436;2022-11-20T00:47:00;101130.0;;;0.38888888888889045;58.9
64862;BME280;62652;42.274;-71.436;2022-11-20T00:48:00;101140.0;;;0.38888888888889045;58.3
64862;BME280;62652;42.274;-71.436;2022-11-20T00:49:00;101140.0;;;0.38888888888889045;58.5
64862;BME280;62652;42.274;-71.436;2022-11-20T00:50:00;101140.0;;;0.2777777777777778;58.5
64862;BME280;62652;42.274;-71.436;2022-11-20T00:51:01;101140.0;;;0.2777777777777778;59.0
64862;BME280;62652;42.274;-71.436;2022-11-20T00:52:00;101140.0;;;0.2777777777777778;59.2
64862;BME280;62652;42.274;-71.436;2022-11-20T00:53:00;101130.0;;;0.2777777777777778;58.5
64862;BME280;62652;42.274;-71.436;2022-11-20T00:54:00;101140.0;;;0.38888888888889045;58.5
64862;BME280;62652;42.274;-71.436;2022-11-20T00:55:00;101130.0;;;0.2777777777777778;58.6
64862;BME280;62652;42.274;-71.436;2022-11-20T00:56:03;101140.0;;;0.2777777777777778;58.9
64862;BME280;62652;42.274;-71.436;2022-11-20T00:57:00;101140.0;;;0.2777777777777778;59.1
64862;BME280;62652;42.274;-71.436;2022-11-20T00:58:00;101140.0;;;0.2777777777777778;59.0
64862;BME280;62652;42.274;-71.436;2022-11-20T00:59:01;101140.0;;;0.22222222222222143;59.3
64862;BME280;62652;42.274;-71.436;2022-11-20T01:00:00;101140.0;;;0.22222222222222143;59.2
64862;BME280;62652;42.274;-71.436;2022-11-20T01:01:00;101140.0;;;0.22222222222222143;59.7
64862;BME280;62652;42.274;-71.436;2022-11-20T01:02:00;101140.0;;;0.22222222222222143;60.0
64862;BME280;62652;42.274;-71.436;2022-11-20T01:03:00;101140.0;;;0.22222222222222143;59.7
64862;BME280;62652;42.274;-71.436;2022-11-20T01:04:00;101140.0;;;0.11111111111111269;60.6
64862;BME280;62652;42.274;-71.436;2022-11-20T01:05:00;101140.0;;;0.11111111111111269;60.2
64862;BME280;62652;42.274;-71.436;2022-11-20T01:06:01;101140.0;;;0.22222222222222143;59.8
64862;BME280;62652;42.274;-71.436;2022-11-20T01:07:00;101150.0;;;0.2777777777777778;59.7
64862;BME280;62652;42.274;-71.436;2022-11-20T01:08:00;101140.0;;;0.2777777777777778;59.6
64862;BME280;62652;42.274;-71.436;2022-11-20T01:09:04;101140.0;;;0.22222222222222143;59.6
64862;BME280;62652;42.274;-71.436;2022-11-20T01:10:00;101140.0;;;0.22222222222222143;60.1
64862;BME280;62652;42.274;-71.436;2022-11-20T01:11:01;101140.0;;;0.22222222222222143;60.1
64862;BME280;62652;42.274;-71.436;2022-11-20T01:12:00;101140.0;;;0.22222222222222143;60.4
64862;BME280;62652;42.274;-71.436;2022-11-20T01:13:00;101140.0;;;0.2777777777777778;59.8
64862;BME280;62652;42.274;-71.436;2022-11-20T01:14:02;101130.0;;;0.2777777777777778;59.7
64862;BME280;62652;42.274;-71.436;2022-11-20T01:15:00;101130.0;;;0.22222222222222143;59.9
64862;BME280;62652;42.274;-71.436;2022-11-20T01:16:03;101130.0;;;0.22222222222222143;60.0
64862;BME280;62652;42.274;-71.436;2022-11-20T01:17:00;101120.0;;;0.38888888888889045;59.4
64862;BME280;62652;42.274;-71.436;2022-11-20T01:18:00;101130.0;;;0.22222222222222143;59.7
64862;BME280;62652;42.274;-71.436;2022-11-20T01:19:03;101130.0;;;0.11111111111111269;60.4
64862;BME280;62652;42.274;-71.436;2022-11-20T01:20:00;101130.0;;;0.11111111111111269;60.7
64862;BME280;62652;42.274;-71.436;2022-11-20T01:21:02;101130.0;;;0.11111111111111269;60.3
64862;BME280;62652;42.274;-71.436;2022-11-20T01:22:00;101130.0;;;0.11111111111111269;60.4
64862;BME280;62652;42.274;-71.436;2022-11-20T01:23:00;101130.0;;;0.0;60.6
64862;BME280;62652;42.274;-71.436;2022-11-20T01:24:01;101120.0;;;0.11111111111111269;60.8
64862;BME280;62652;42.274;-71.436;2022-11-20T01:25:00;101120.0;;;0.11111111111111269;60.0
64862;BME280;62652;42.274;-71.436;2022-11-20T01:26:01;101120.0;;;0.22222222222222143;59.9
64862;BME280;62652;42.274;-71.436;2022-11-20T01:27:00;101120.0;;;0.0;60.7
64862;BME280;62652;42.274;-71.436;2022-11-20T01:28:00;101130.0;;;-0.11111111111111072;61.3
64862;BME280;62652;42.274;-71.436;2022-11-20T01:29:01;101130.0;;;-0.11111111111111072;61.1
64862;BME280;62652;42.274;-71.436;2022-11-20T01:30:00;101130.0;;;0.11111111111111269;60.2
64862;BME280;62652;42.274;-71.436;2022-11-20T01:31:00;101130.0;;;0.0;60.6
64862;BME280;62652;42.274;-71.436;2022-11-20T01:32:00;101130.0;;;-0.11111111111111072;61.2
64862;BME280;62652;42.274;-71.436;2022-11-20T01:33:00;101130.0;;;-0.2777777777777778;62.2
64862;BME280;62652;42.274;-71.436;2022-11-20T01:34:03;101130.0;;;-0.2777777777777778;62.1
64862;BME280;62652;42.274;-71.436;2022-11-20T01:35:00;101130.0;;;-0.2777777777777778;61.7
64862;BME280;62652;42.274;-71.436;2022-11-20T01:36:06;101130.0;;;-0.22222222222222143;61.7
64862;BME280;62652;42.274;-71.436;2022-11-20T01:37:00;101140.0;;;-0.22222222222222143;61.2
64862;BME280;62652;42.274;-71.436;2022-11-20T01:38:00;101140.0;;;-0.2777777777777778;61.4
64862;BME280;62652;42.274;-71.436;2022-11-20T01:39:04;101140.0;;;-0.2777777777777778;61.3
64862;BME280;62652;42.274;-71.436;2022-11-20T01:40:00;101140.0;;;-0.2777777777777778;62.1
64862;BME280;62652;42.274;-71.436;2022-11-20T01:41:00;101140.0;;;-0.4999999999999992;62.5
64862;BME280;62652;42.274;-71.436;2022-11-20T01:42:00;101130.0;;;-0.4999999999999992;62.5
64862;BME280;62652;42.274;-71.436;2022-11-20T01:43:12;101130.0;;;-0.6111111111111119;62.4
64862;BME280;62652;42.274;-71.436;2022-11-20T01:44:01;101120.0;;;-0.4999999999999992;62.5
64862;BME280;62652;42.274;-71.436;2022-11-20T01:45:01;101120.0;;;-0.6111111111111119;62.4
64862;BME280;62652;42.274;-71.436;2022-11-20T01:46:04;101120.0;;;-0.6111111111111119;62.6
64862;BME280;62652;42.274;-71.436;2022-11-20T01:47:02;101130.0;;;-0.6111111111111119;62.6
64862;BME280;62652;42.274;-71.436;2022-11-20T01:48:00;101120.0;;;-0.6111111111111119;62.5
64862;BME280;62652;42.274;-71.436;2022-11-20T01:49:03;101120.0;;;-0.6111111111111119;62.1
64862;BME280;62652;42.274;-71.436;2022-11-20T01:50:05;101120.0;;;-0.2777777777777778;60.2
64862;BME280;62652;42.274;-71.436;2022-11-20T01:51:01;101120.0;;;-0.2777777777777778;60.3
64862;BME280;62652;42.274;-71.436;2022-11-20T01:52:04;101120.0;;;-0.2777777777777778;60.1
64862;BME280;62652;42.274;-71.436;2022-11-20T01:53:02;101110.0;;;-0.3888888888888885;59.9
64862;BME280;62652;42.274;-71.436;2022-11-20T01:54:04;101110.0;;;-0.3888888888888885;60.0
64862;BME280;62652;42.274;-71.436;2022-11-20T01:55:04;101110.0;;;-0.3888888888888885;59.7
64862;BME280;62652;42.274;-71.436;2022-11-20T01:56:01;101110.0;;;-0.2777777777777778;59.3
64862;BME280;62652;42.274;-71.436;2022-11-20T01:57:00;101110.0;;;-0.3888888888888885;59.4
64862;BME280;62652;42.274;-71.436;2022-11-20T01:58:02;101110.0;;;-0.3888888888888885;59.3
64862;BME280;62652;42.274;-71.436;2022-11-20T01:59:02;101110.0;;;-0.3888888888888885;58.7
64862;BME280;62652;42.274;-71.436;2022-11-20T02:00:04;101110.0;;;-0.2777777777777778;58.5
64862;BME280;62652;42.274;-71.436;2022-11-20T02:01:00;101110.0;;;-0.22222222222222143;58.2
64862;BME280;62652;42.274;-71.436;2022-11-20T02:02:00;101110.0;;;-0.2777777777777778;58.6
64862;BME280;62652;42.274;-71.436;2022-11-20T02:03:04;101110.0;;;-0.2777777777777778;58.3
64862;BME280;62652;42.274;-71.436;2022-11-20T02:04:01;101120.0;;;-0.2777777777777778;59.0
64862;BME280;62652;42.274;-71.436;2022-11-20T02:05:04;101120.0;;;-0.3888888888888885;59.6
64862;BME280;62652;42.274;-71.436;2022-11-20T02:06:06;101110.0;;;-0.3888888888888885;58.7
64862;BME280;62652;42.274;-71.436;2022-11-20T02:07:02;101110.0;;;-0.2777777777777778;58.3
64862;BME280;62652;42.274;-71.436;2022-11-20T02:08:02;101110.0;;;-0.2777777777777778;58.5
64862;BME280;62652;42.274;-71.436;2022-11-20T02:09:01;101110.0;;;-0.3888888888888885;58.6
64862;BME280;62652;42.274;-71.436;2022-11-20T02:10:01;101120.0;;;-0.3888888888888885;58.8
64862;BME280;62652;42.274;-71.436;2022-11-20T02:11:00;101110.0;;;-0.3888888888888885;59.0
64862;BME280;62652;42.274;-71.436;2022-11-20T02:12:00;101110.0;;;-0.22222222222222143;57.6
64862;BME280;62652;42.274;-71.436;2022-11-20T02:13:00;101110.0;;;-0.2777777777777778;57.9
64862;BME280;62652;42.274;-71.436;2022-11-20T02:14:00;101110.0;;;-0.2777777777777778;57.9
64862;BME280;62652;42.274;-71.436;2022-11-20T02:15:01;101110.0;;;-0.2777777777777778;57.4
64862;BME280;62652;42.274;-71.436;2022-11-20T02:16:01;101110.0;;;-0.2777777777777778;57.4
64862;BME280;62652;42.274;-71.436;2022-11-20T02:17:00;101120.0;;;-0.3888888888888885;58.0
64862;BME280;62652;42.274;-71.436;2022-11-20T02:18:01;101110.0;;;-0.3888888888888885;58.4
64862;BME280;62652;42.274;-71.436;2022-11-20T02:19:02;101110.0;;;-0.4999999999999992;58.5
64862;BME280;62652;42.274;-71.436;2022-11-20T02:20:00;101100.0;;;-0.4999999999999992;58.8
64862;BME280;62652;42.274;-71.436;2022-11-20T02:21:06;101100.0;;;-0.6111111111111119;59.3
64862;BME280;62652;42.274;-71.436;2022-11-20T02:22:05;101100.0;;;-0.7222222222222227;59.5
64862;BME280;62652;42.274;-71.436;2022-11-20T02:23:05;101100.0;;;-0.6111111111111119;59.4
64862;BME280;62652;42.274;-71.436;2022-11-20T02:24:04;101100.0;;;-0.7222222222222227;59.9
64862;BME280;62652;42.274;-71.436;2022-11-20T02:25:02;101100.0;;;-0.777777777777777;60.3
64862;BME280;62652;42.274;-71.436;2022-11-20T02:26:02;101100.0;;;-0.7222222222222227;59.7
64862;BME280;62652;42.274;-71.436;2022-11-20T02:27:03;101090.0;;;-0.7222222222222227;59.3
64862;BME280;62652;42.274;-71.436;2022-11-20T02:28:01;101090.0;;;-0.6111111111111119;59.3
64862;BME280;62652;42.274;-71.436;2022-11-20T02:29:02;101090.0;;;-0.7222222222222227;59.1
64862;BME280;62652;42.274;-71.436;2022-11-20T02:30:02;101080.0;;;-0.7222222222222227;59.4
64862;BME280;62652;42.274;-71.436;2022-11-20T02:31:00;101080.0;;;-0.6111111111111119;58.8
64862;BME280;62652;42.274;-71.436;2022-11-20T02:32:01;101080.0;;;-0.4999999999999992;58.0
64862;BME280;62652;42.274;-71.436;2022-11-20T02:33:00;101070.0;;;-0.4999999999999992;57.8
64862;BME280;62652;42.274;-71.436;2022-11-20T02:34:00;101070.0;;;-0.4999999999999992;58.3
64862;BME280;62652;42.274;-71.436;2022-11-20T02:35:07;101070.0;;;-0.4999999999999992;58.2
64862;BME280;62652;42.274;-71.436;2022-11-20T02:36:00;101070.0;;;-0.4999999999999992;58.0
64862;BME280;62652;42.274;-71.436;2022-11-20T02:37:00;101070.0;;;-0.3888888888888885;57.3
64862;BME280;62652;42.274;-71.436;2022-11-20T02:38:02;101060.0;;;-0.2777777777777778;56.4
64862;BME280;62652;42.274;-71.436;2022-11-20T02:39:01;101070.0;;;-0.2777777777777778;56.5
64862;BME280;62652;42.274;-71.436;2022-11-20T02:40:00;101070.0;;;-0.3888888888888885;56.6
64862;BME280;62652;42.274;-71.436;2022-11-20T02:41:00;101080.0;;;-0.2777777777777778;56.0
64862;BME280;62652;42.274;-71.436;2022-11-20T02:42:01;101070.0;;;-0.2777777777777778;56.6
64862;BME280;62652;42.274;-71.436;2022-11-20T02:43:00;101080.0;;;-0.22222222222222143;56.3
64862;BME280;62652;42.274;-71.436;2022-11-20T02:44:00;101080.0;;;-0.2777777777777778;55.6
64862;BME280;62652;42.274;-71.436;2022-11-20T02:45:00;101080.0;;;-0.3888888888888885;56.0
64862;BME280;62652;42.274;-71.436;2022-11-20T02:46:00;101080.0;;;-0.4999999999999992;56.4
64862;BME280;62652;42.274;-71.436;2022-11-20T02:47:00;101080.0;;;-0.4999999999999992;56.0
64862;BME280;62652;42.274;-71.436;2022-11-20T02:48:00;101080.0;;;-0.6111111111111119;56.5
64862;BME280;62652;42.274;-71.436;2022-11-20T02:49:02;101080.0;;;-0.2777777777777778;54.9
64862;BME280;62652;42.274;-71.436;2022-11-20T02:50:00;101080.0;;;-0.2777777777777778;55.2
64862;BME280;62652;42.274;-71.436;2022-11-20T02:51:00;101080.0;;;-0.22222222222222143;54.4
64862;BME280;62652;42.274;-71.436;2022-11-20T02:52:00;101080.0;;;-0.2777777777777778;54.6
64862;BME280;62652;42.274;-71.436;2022-11-20T02:53:00;101080.0;;;-0.2777777777777778;54.6
64862;BME280;62652;42.274;-71.436;2022-11-20T02:54:00;101080.0;;;-0.2777777777777778;54.5
64862;BME280;62652;42.274;-71.436;2022-11-20T02:55:00;101080.0;;;-0.2777777777777778;54.3
64862;BME280;62652;42.274;-71.436;2022-11-20T02:56:00;101080.0;;;-0.3888888888888885;55.1
64862;BME280;62652;42.274;-71.436;2022-11-20T02:57:00;101070.0;;;-0.4999999999999992;55.6
64862;BME280;62652;42.274;-71.436;2022-11-20T02:58:00;101070.0;;;-0.4999999999999992;55.0
64862;BME280;62652;42.274;-71.436;2022-11-20T02:59:00;101080.0;;;-0.3888888888888885;54.7
64862;BME280;62652;42.274;-71.436;2022-11-20T03:00:00;101080.0;;;-0.4999999999999992;55.1
64862;BME280;62652;42.274;-71.436;2022-11-20T03:01:00;101080.0;;;-0.3888888888888885;54.7
64862;BME280;62652;42.274;-71.436;2022-11-20T03:02:00;101090.0;;;-0.3888888888888885;55.0
64862;BME280;62652;42.274;-71.436;2022-11-20T03:03:00;101090.0;;;-0.3888888888888885;54.8
64862;BME280;62652;42.274;-71.436;2022-11-20T03:04:01;101100.0;;;-0.3888888888888885;54.7
64862;BME280;62652;42.274;-71.436;2022-11-20T03:05:00;101090.0;;;-0.2777777777777778;55.5
64862;BME280;62652;42.274;-71.436;2022-11-20T03:06:00;101090.0;;;-0.3888888888888885;57.6
64862;BME280;62652;42.274;-71.436;2022-11-20T03:07:01;101100.0;;;-0.22222222222222143;57.8
64862;BME280;62652;42.274;-71.436;2022-11-20T03:08:00;101090.0;;;-0.22222222222222143;59.1
64862;BME280;62652;42.274;-71.436;2022-11-20T03:09:00;101080.0;;;-0.3888888888888885;55.5
64862;BME280;62652;42.274;-71.436;2022-11-20T03:10:00;101080.0;;;-0.3888888888888885;55.6
64862;BME280;62652;42.274;-71.436;2022-11-20T03:11:03;101080.0;;;-0.4999999999999992;55.5
64862;BME280;62652;42.274;-71.436;2022-11-20T03:12:00;101080.0;;;-0.4999999999999992;55.2
64862;BME280;62652;42.274;-71.436;2022-11-20T03:13:00;101070.0;;;-0.3888888888888885;54.9
64862;BME280;62652;42.274;-71.436;2022-11-20T03:14:01;101070.0;;;-0.6111111111111119;55.5
64862;BME280;62652;42.274;-71.436;2022-11-20T03:15:00;101070.0;;;-0.7222222222222227;55.6
64862;BME280;62652;42.274;-71.436;2022-11-20T03:16:04;101070.0;;;-0.4999999999999992;54.4
64862;BME280;62652;42.274;-71.436;2022-11-20T03:17:00;101070.0;;;-0.4999999999999992;54.8
64862;BME280;62652;42.274;-71.436;2022-11-20T03:18:00;101070.0;;;-0.4999999999999992;56.0
64862;BME280;62652;42.274;-71.436;2022-11-20T03:19:00;101070.0;;;-0.3888888888888885;55.3
64862;BME280;62652;42.274;-71.436;2022-11-20T03:20:00;101070.0;;;-0.3888888888888885;55.8
64862;BME280;62652;42.274;-71.436;2022-11-20T03:21:00;101080.0;;;-0.3888888888888885;54.8
64862;BME280;62652;42.274;-71.436;2022-11-20T03:22:00;101070.0;;;-0.6111111111111119;56.0
64862;BME280;62652;42.274;-71.436;2022-11-20T03:23:01;101060.0;;;-0.6111111111111119;55.2
64862;BME280;62652;42.274;-71.436;2022-11-20T03:24:00;101060.0;;;-0.6111111111111119;55.1
64862;BME280;62652;42.274;-71.436;2022-11-20T03:25:00;101050.0;;;-0.6111111111111119;56.8
64862;BME280;62652;42.274;-71.436;2022-11-20T03:26:10;101060.0;;;-0.7222222222222227;56.5
64862;BME280;62652;42.274;-71.436;2022-11-20T03:27:00;101060.0;;;-0.7222222222222227;56.5
64862;BME280;62652;42.274;-71.436;2022-11-20T03:28:00;101060.0;;;-0.6111111111111119;55.5
64862;BME280;62652;42.274;-71.436;2022-11-20T03:29:02;101050.0;;;-0.4999999999999992;55.7
64862;BME280;62652;42.274;-71.436;2022-11-20T03:30:00;101050.0;;;-0.7222222222222227;56.0
64862;BME280;62652;42.274;-71.436;2022-11-20T03:31:04;101060.0;;;-0.7222222222222227;55.5
64862;BME280;62652;42.274;-71.436;2022-11-20T03:32:00;101060.0;;;-0.777777777777777;56.0
64862;BME280;62652;42.274;-71.436;2022-11-20T03:33:00;101060.0;;;-0.777777777777777;55.5
64862;BME280;62652;42.274;-71.436;2022-11-20T03:34:01;101060.0;;;-0.7222222222222227;55.7
64862;BME280;62652;42.274;-71.436;2022-11-20T03:35:00;101060.0;;;-0.7222222222222227;55.6
64862;BME280;62652;42.274;-71.436;2022-11-20T03:36:02;101060.0;;;-0.7222222222222227;55.0
64862;BME280;62652;42.274;-71.436;2022-11-20T03:37:00;101070.0;;;-0.7222222222222227;54.9
64862;BME280;62652;42.274;-71.436;2022-11-20T03:38:00;101060.0;;;-0.7222222222222227;55.5
64862;BME280;62652;42.274;-71.436;2022-11-20T03:39:01;101060.0;;;-0.777777777777777;55.8
64862;BME280;62652;42.274;-71.436;2022-11-20T03:40:00;101060.0;;;-0.7222222222222227;55.0
64862;BME280;62652;42.274;-71.436;2022-11-20T03:41:02;101060.0;;;-0.6111111111111119;55.1
64862;BME280;62652;42.274;-71.436;2022-11-20T03:42:00;101060.0;;;-0.7222222222222227;55.2
64862;BME280;62652;42.274;-71.436;2022-11-20T03:43:00;101060.0;;;-0.777777777777777;55.8
64862;BME280;62652;42.274;-71.436;2022-11-20T03:44:02;101060.0;;;-0.7222222222222227;54.8
64862;BME280;62652;42.274;-71.436;2022-11-20T03:45:00;101060.0;;;-0.7222222222222227;55.2
64862;BME280;62652;42.274;-71.436;2022-11-20T03:46:01;101050.0;;;-0.777777777777777;55.4
64862;BME280;62652;42.274;-71.436;2022-11-20T03:47:00;101050.0;;;-0.777777777777777;56.0
64862;BME280;62652;42.274;-71.436;2022-11-20T03:48:00;101050.0;;;-0.8888888888888897;56.0
64862;BME280;62652;42.274;-71.436;2022-11-20T03:49:01;101050.0;;;-0.8888888888888897;56.1
64862;BME280;62652;42.274;-71.436;2022-11-20T03:50:00;101050.0;;;-0.8888888888888897;56.0
64862;BME280;62652;42.274;-71.436;2022-11-20T03:51:09;101050.0;;;-1.0000000000000004;56.3
64862;BME280;62652;42.274;-71.436;2022-11-20T03:52:00;101050.0;;;-0.8888888888888897;56.2
64862;BME280;62652;42.274;-71.436;2022-11-20T03:53:00;101050.0;;;-0.8888888888888897;56.2
64862;BME280;62652;42.274;-71.436;2022-11-20T03:54:02;101050.0;;;-1.0000000000000004;56.4
64862;BME280;62652;42.274;-71.436;2022-11-20T03:55:00;101050.0;;;-0.8888888888888897;56.4
64862;BME280;62652;42.274;-71.436;2022-11-20T03:56:00;101050.0;;;-1.0000000000000004;56.5
64862;BME280;62652;42.274;-71.436;2022-11-20T03:57:00;101050.0;;;-1.1111111111111112;56.7
64862;BME280;62652;42.274;-71.436;2022-11-20T03:58:00;101050.0;;;-1.0000000000000004;56.4
64862;BME280;62652;42.274;-71.436;2022-11-20T03:59:01;101050.0;;;-1.0000000000000004;56.5
64862;BME280;62652;42.274;-71.436;2022-11-20T04:00:00;101040.0;;;-1.1111111111111112;56.8
64862;BME280;62652;42.274;-71.436;2022-11-20T04:01:06;101040.0;;;-1.1111111111111112;56.9
64862;BME280;62652;42.274;-71.436;2022-11-20T04:02:00;101040.0;;;-1.2222222222222219;56.9
64862;BME280;62652;42.274;-71.436;2022-11-20T04:03:01;101030.0;;;-1.2222222222222219;56.9
64862;BME280;62652;42.274;-71.436;2022-11-20T04:04:00;101040.0;;;-1.2222222222222219;57.5
64862;BME280;62652;42.274;-71.436;2022-11-20T04:05:00;101030.0;;;-1.2777777777777781;57.8
64862;BME280;62652;42.274;-71.436;2022-11-20T04:06:03;101030.0;;;-1.2777777777777781;58.6
64862;BME280;62652;42.274;-71.436;2022-11-20T04:07:00;101030.0;;;-1.2777777777777781;58.8
64862;BME280;62652;42.274;-71.436;2022-11-20T04:08:00;101030.0;;;-1.2777777777777781;58.8
64862;BME280;62652;42.274;-71.436;2022-11-20T04:09:00;101020.0;;;-1.2222222222222219;58.6
64862;BME280;62652;42.274;-71.436;2022-11-20T04:10:00;101020.0;;;-1.1111111111111112;58.7
64862;BME280;62652;42.274;-71.436;2022-11-20T04:11:09;101020.0;;;-1.2222222222222219;58.3
64862;BME280;62652;42.274;-71.436;2022-11-20T04:12:00;101020.0;;;-1.0000000000000004;57.8
64862;BME280;62652;42.274;-71.436;2022-11-20T04:13:00;101020.0;;;-1.0000000000000004;57.6
64862;BME280;62652;42.274;-71.436;2022-11-20T04:14:02;101010.0;;;-1.1111111111111112;58.3
64862;BME280;62652;42.274;-71.436;2022-11-20T04:15:00;101010.0;;;-1.2222222222222219;58.3
64862;BME280;62652;42.274;-71.436;2022-11-20T04:16:00;101010.0;;;-1.2222222222222219;58.6
64862;BME280;62652;42.274;-71.436;2022-11-20T04:17:00;101010.0;;;-1.2777777777777781;58.7
64862;BME280;62652;42.274;-71.436;2022-11-20T04:18:00;101000.0;;;-1.2777777777777781;58.8
64862;BME280;62652;42.274;-71.436;2022-11-20T04:19:03;101010.0;;;-1.2222222222222219;59.1
64862;BME280;62652;42.274;-71.436;2022-11-20T04:20:00;101000.0;;;-1.1111111111111112;58.5
64862;BME280;62652;42.274;-71.436;2022-11-20T04:21:01;101000.0;;;-1.2222222222222219;58.5
64862;BME280;62652;42.274;-71.436;2022-11-20T04:22:00;101000.0;;;-1.1111111111111112;58.4
64862;BME280;62652;42.274;-71.436;2022-11-20T04:23:00;101000.0;;;-1.2222222222222219;59.8
64862;BME280;62652;42.274;-71.436;2022-11-20T04:24:01;101000.0;;;-1.2777777777777781;59.6
64862;BME280;62652;42.274;-71.436;2022-11-20T04:25:00;101000.0;;;-1.2777777777777781;59.0